Time;durP1;ratioP1;P1;durP2;ratioP2;P2;SDS_P1;SDS_P2;PMS_P1;PMS_P2;Temp;Humidity;BMP_temperature;BMP_pressure;BME280_temperature;BME280_humidity;BME280_pressure;Samples;Min_cycle;Max_cycle;Signal;HPM_P1;HPM_P2
2023/10/03 00:01:05;;;;;;;9.10;5.80;;;;;;;6.63;100.00;98292.16;109880;1244;59742;-60
2023/10/03 00:03:41;;;;;;;8.20;5.50;;;;;;;6.61;100.00;98291.38;109916;1244;59996;-61
2023/10/03 00:06:12;;;;;;;7.80;5.10;;;;;;;6.60;100.00;98289.67;110041;1241;70712;-60
2023/10/03 00:08:45;;;;;;;8.90;5.30;;;;;;;6.60;100.00;98281.55;110100;1242;68547;-60
2023/10/03 00:11:22;;;;;;;10.90;6.00;;;;;;;6.58;100.00;98281.95;110073;1244;69116;-60
2023/10/03 00:13:54;;;;;;;10.00;5.90;;;;;;;6.58;100.00;98278.17;110046;1244;59687;-61
2023/10/03 00:16:26;;;;;;;9.70;6.50;;;;;;;6.57;100.00;98274.74;109902;1243;59714;-60
2023/10/03 00:18:56;;;;;;;10.80;6.40;;;;;;;6.57;100.00;98273.19;109984;1244;70679;-59
2023/10/03 00:21:27;;;;;;;;;;;;;;;6.54;100.00;98274.18;110043;1244;69075;-60
2023/10/03 00:24:00;;;;;;;8.50;5.10;;;;;;;6.51;100.00;98271.35;109928;1244;68475;-61
2023/10/03 00:26:31;;;;;;;9.00;5.80;;;;;;;6.49;100.00;98265.91;109939;1244;59734;-60
2023/10/03 00:29:03;;;;;;;9.00;5.50;;;;;;;6.48;100.00;98265.78;110015;1242;60102;-60
2023/10/03 00:31:38;;;;;;;9.70;6.00;;;;;;;6.49;100.00;98271.66;110008;1244;71409;-60
2023/10/03 00:34:12;;;;;;;7.40;4.70;;;;;;;6.48;100.00;98271.17;109927;1244;68543;-61
2023/10/03 00:36:49;;;;;;;9.20;4.80;;;;;;;6.46;100.00;98271.23;110004;1244;69130;-60
2023/10/03 00:39:24;;;;;;;5.10;3.80;;;;;;;6.41;100.00;98268.69;110065;1242;60065;-60
2023/10/03 00:41:55;;;;;;;6.60;4.30;;;;;;;6.36;100.00;98270.11;110043;1244;59696;-61
2023/10/03 00:44:26;;;;;;;9.10;5.50;;;;;;;6.32;100.00;98266.48;109885;1245;71243;-61
2023/10/03 00:46:57;;;;;;;7.50;5.00;;;;;;;6.28;100.00;98267.31;109820;1244;69652;-60
2023/10/03 00:49:31;;;;;;;8.70;5.00;;;;;;;6.24;100.00;98269.04;109818;1245;68263;-61
2023/10/03 00:52:05;;;;;;;7.70;4.20;;;;;;;6.22;100.00;98268.78;109995;1244;59738;-60
2023/10/03 00:54:36;;;;;;;8.40;4.70;;;;;;;6.19;100.00;98274.09;110037;1241;60153;-60
2023/10/03 00:57:11;;;;;;;8.40;5.00;;;;;;;6.15;100.00;98270.98;110097;1243;72126;-60
2023/10/03 00:59:44;;;;;;;8.80;6.00;;;;;;;6.13;100.00;98272.95;110074;1243;68560;-58
2023/10/03 01:02:15;;;;;;;12.70;6.80;;;;;;;6.11;100.00;98268.88;110098;1241;69366;-60
2023/10/03 01:04:47;;;;;;;9.40;5.60;;;;;;;6.08;100.00;98266.42;110076;1243;59746;-60
2023/10/03 01:07:19;;;;;;;10.80;6.00;;;;;;;6.03;100.00;98267.67;110009;1244;59712;-62
2023/10/03 01:09:50;;;;;;;9.70;5.60;;;;;;;5.98;100.00;98268.05;109790;1244;71248;-61
2023/10/03 01:12:21;;;;;;;10.40;5.70;;;;;;;5.93;100.00;98267.39;110052;1243;69596;-60
2023/10/03 01:14:55;;;;;;;8.70;5.00;;;;;;;5.87;100.00;98264.83;110010;1244;69161;-60
2023/10/03 01:17:28;;;;;;;7.80;5.50;;;;;;;5.83;100.00;98267.59;110025;1244;59647;-59
2023/10/03 01:20:00;;;;;;;7.90;4.60;;;;;;;5.80;100.00;98268.39;109747;1244;59667;-59
2023/10/03 01:22:30;;;;;;;8.60;5.60;;;;;;;5.78;100.00;98268.81;109799;1245;70378;-60
2023/10/03 01:25:01;;;;;;;9.70;5.90;;;;;;;5.76;100.00;98269.09;109923;1244;68440;-60
2023/10/03 01:27:33;;;;;;;8.50;5.50;;;;;;;5.73;100.00;98263.32;109840;1244;69296;-60
2023/10/03 01:30:06;;;;;;;9.80;5.40;;;;;;;5.72;100.00;98261.77;109907;1244;59758;-60
2023/10/03 01:32:48;;;;;;;8.90;5.30;;;;;;;5.75;100.00;98261.50;109869;1244;59726;-60
2023/10/03 01:35:22;;;;;;;8.70;5.90;;;;;;;5.76;100.00;98255.75;109875;1244;71208;-60
2023/10/03 01:37:57;;;;;;;8.20;4.90;;;;;;;5.73;100.00;98259.34;109757;1244;68601;-61
2023/10/03 01:40:30;;;;;;;8.20;4.40;;;;;;;5.70;100.00;98256.66;109880;1243;69204;-60
2023/10/03 01:43:08;;;;;;;9.50;5.30;;;;;;;5.69;100.00;98256.23;109940;1243;59730;-60
2023/10/03 01:45:38;;;;;;;8.10;5.10;;;;;;;5.69;100.00;98252.58;109922;1244;59670;-60
2023/10/03 01:48:13;;;;;;;9.10;6.00;;;;;;;5.70;100.00;98256.02;109882;1245;71445;-61
2023/10/03 01:50:46;;;;;;;8.40;5.30;;;;;;;5.70;100.00;98253.58;110055;1244;69627;-60
2023/10/03 01:53:19;;;;;;;8.90;5.30;;;;;;;5.70;100.00;98248.20;109971;1243;69087;-60
2023/10/03 01:55:51;;;;;;;7.00;5.40;;;;;;;5.70;100.00;98247.89;110101;1244;59715;-60
2023/10/03 01:58:25;;;;;;;9.50;5.10;;;;;;;5.69;100.00;98247.93;110051;1243;59707;-60
2023/10/03 02:00:59;;;;;;;7.80;4.30;;;;;;;5.66;100.00;98249.41;109812;1245;71355;-61
2023/10/03 02:03:32;;;;;;;6.90;4.40;;;;;;;5.63;100.00;98249.00;110097;1244;68504;-60
2023/10/03 02:06:07;;;;;;;7.60;5.00;;;;;;;5.60;100.00;98250.14;110014;1244;69399;-61
2023/10/03 02:08:47;;;;;;;8.30;4.50;;;;;;;5.58;100.00;98245.92;109994;1244;59753;-60
2023/10/03 02:11:26;;;;;;;7.30;4.50;;;;;;;5.56;100.00;98246.70;109997;1244;59695;-61
2023/10/03 02:14:11;;;;;;;5.60;4.20;;;;;;;5.52;100.00;98245.98;109948;1244;71419;-58
2023/10/03 02:16:46;;;;;;;5.90;4.20;;;;;;;5.48;100.00;98245.77;110128;1244;69186;-59
2023/10/03 02:19:18;;;;;;;7.90;5.30;;;;;;;5.47;100.00;98249.31;110070;1245;68645;-59
2023/10/03 02:21:59;;;;;;;7.60;5.20;;;;;;;5.45;100.00;98246.06;110070;1245;59703;-62
2023/10/03 02:24:30;;;;;;;;;;;;;;;5.43;100.00;98247.38;110134;1241;59747;-60
2023/10/03 02:27:11;;;;;;;6.50;4.10;;;;;;;5.38;100.00;98246.35;110128;1244;70731;-60
2023/10/03 02:29:51;;;;;;;6.90;5.20;;;;;;;5.34;100.00;98245.64;110098;1241;68637;-60
2023/10/03 02:32:23;;;;;;;8.70;4.80;;;;;;;5.30;100.00;98246.11;110067;1244;67423;-60
2023/10/03 02:34:54;;;;;;;8.20;5.00;;;;;;;5.29;100.00;98247.92;110090;1241;59783;-60
2023/10/03 02:37:25;;;;;;;7.70;5.10;;;;;;;5.27;100.00;98247.45;110074;1244;59667;-60
2023/10/03 02:40:00;;;;;;;7.10;4.60;;;;;;;5.28;100.00;98247.77;110085;1244;71550;-60
2023/10/03 02:42:33;;;;;;;8.40;5.40;;;;;;;5.26;100.00;98245.26;110067;1242;69393;-60
2023/10/03 02:45:06;;;;;;;6.40;4.30;;;;;;;5.25;100.00;98246.15;110013;1243;68451;-60
2023/10/03 02:47:39;;;;;;;10.80;5.50;;;;;;;5.24;100.00;98247.60;109845;1243;59738;-60
2023/10/03 02:50:12;;;;;;;8.30;5.30;;;;;;;5.24;100.00;98246.19;109816;1246;59734;-60
2023/10/03 02:52:45;;;;;;;7.70;5.10;;;;;;;5.25;100.00;98249.93;110018;1244;69710;-60
2023/10/03 02:55:17;;;;;;;8.90;5.00;;;;;;;5.23;100.00;98247.96;109850;1244;69353;-60
2023/10/03 02:57:46;;;;;;;7.40;5.00;;;;;;;5.22;100.00;98246.44;109786;1244;69873;-60
2023/10/03 03:00:19;;;;;;;7.10;4.60;;;;;;;5.22;100.00;98249.05;109867;1244;59758;-60
2023/10/03 03:02:50;;;;;;;7.20;4.80;;;;;;;5.21;100.00;98251.32;109820;1244;59643;-60
2023/10/03 03:05:24;;;;;;;7.90;5.70;;;;;;;5.20;100.00;98250.52;109966;1243;71389;-60
2023/10/03 03:07:59;;;;;;;7.40;5.00;;;;;;;5.15;100.00;98248.98;109886;1244;68507;-61
2023/10/03 03:10:31;;;;;;;7.00;5.10;;;;;;;5.10;100.00;98249.14;109862;1243;69340;-60
2023/10/03 03:13:02;;;;;;;8.10;5.40;;;;;;;5.08;100.00;98249.04;109904;1244;59753;-60
2023/10/03 03:15:37;;;;;;;9.20;6.00;;;;;;;5.06;100.00;98249.61;109960;1241;59618;-61
2023/10/03 03:18:12;;;;;;;8.10;5.80;;;;;;;5.06;100.00;98246.69;110145;1241;71414;-60
2023/10/03 03:20:43;;;;;;;8.00;5.80;;;;;;;5.06;100.00;98248.61;110132;1244;68096;-62
2023/10/03 03:23:14;;;;;;;10.90;6.10;;;;;;;5.06;100.00;98249.81;109998;1244;69121;-61
2023/10/03 03:25:44;;;;;;;10.00;5.90;;;;;;;5.05;100.00;98246.41;109981;1244;59708;-61
2023/10/03 03:28:15;;;;;;;8.30;5.50;;;;;;;5.03;100.00;98248.03;110088;1244;59683;-61
2023/10/03 03:30:54;;;;;;;7.20;4.90;;;;;;;5.00;100.00;98244.67;110090;1244;71413;-61
2023/10/03 03:33:27;;;;;;;7.50;5.20;;;;;;;4.98;100.00;98240.09;110086;1243;68606;-60
2023/10/03 03:36:01;;;;;;;8.00;5.20;;;;;;;4.95;100.00;98241.42;110177;1244;69318;-60
2023/10/03 03:38:32;;;;;;;8.00;5.00;;;;;;;4.93;100.00;98236.64;109995;1245;59752;-60
2023/10/03 03:41:04;;;;;;;6.60;4.10;;;;;;;4.90;100.00;98237.29;109859;1243;59725;-61
2023/10/03 03:43:36;;;;;;;8.80;5.10;;;;;;;4.87;100.00;98238.09;109777;1244;70000;-61
2023/10/03 03:46:08;;;;;;;8.00;5.30;;;;;;;4.84;100.00;98234.71;109787;1243;69080;-60
2023/10/03 03:48:38;;;;;;;6.50;4.90;;;;;;;4.82;100.00;98238.27;109958;1245;68313;-60
2023/10/03 03:51:12;;;;;;;7.50;4.70;;;;;;;4.81;100.00;98238.64;109871;1245;59723;-61
2023/10/03 03:53:43;;;;;;;7.50;4.50;;;;;;;4.80;100.00;98237.29;109793;1244;59699;-60
2023/10/03 03:56:13;;;;;;;6.10;4.20;;;;;;;4.79;100.00;98237.34;110085;1241;70637;-60
2023/10/03 03:58:48;;;;;;;6.10;4.20;;;;;;;4.77;100.00;98236.56;110087;1241;68481;-61
2023/10/03 04:01:20;;;;;;;6.90;4.40;;;;;;;4.77;100.00;98241.38;110052;1244;68771;-60
2023/10/03 04:03:50;;;;;;;9.20;5.20;;;;;;;4.76;100.00;98240.89;110082;1244;59717;-60
2023/10/03 04:06:21;;;;;;;7.50;5.20;;;;;;;4.74;100.00;98240.27;110039;1243;60176;-61
2023/10/03 04:08:51;;;;;;;9.20;5.10;;;;;;;4.75;100.00;98240.41;109895;1244;70712;-60
2023/10/03 04:11:37;;;;;;;8.20;5.50;;;;;;;4.73;100.00;98244.11;109791;1244;69666;-60
2023/10/03 04:14:07;;;;;;;8.00;5.70;;;;;;;4.72;100.00;98246.05;109904;1244;69894;-60
2023/10/03 04:16:43;;;;;;;9.60;5.70;;;;;;;4.70;100.00;98247.65;110104;1243;59686;-60
2023/10/03 04:19:15;;;;;;;7.00;4.90;;;;;;;4.64;100.00;98246.86;110104;1244;59632;-59
2023/10/03 04:21:46;;;;;;;8.20;5.10;;;;;;;4.54;100.00;98246.84;110080;1244;70299;-59
2023/10/03 04:24:18;;;;;;;9.70;5.20;;;;;;;4.48;100.00;98250.54;110146;1243;69393;-59
2023/10/03 04:26:50;;;;;;;7.40;5.10;;;;;;;4.44;100.00;98252.41;109825;1243;68537;-59
2023/10/03 04:29:20;;;;;;;7.40;4.50;;;;;;;4.44;100.00;98255.34;109920;1243;59762;-59
2023/10/03 04:31:51;;;;;;;7.10;4.40;;;;;;;4.44;100.00;98257.41;110087;1242;59753;-60
2023/10/03 04:34:22;;;;;;;8.40;5.10;;;;;;;4.43;100.00;98254.98;110075;1244;71563;-59
2023/10/03 04:36:52;;;;;;;9.60;5.00;;;;;;;4.45;100.00;98254.61;110050;1244;69827;-61
2023/10/03 04:39:22;;;;;;;7.80;4.60;;;;;;;4.48;100.00;98257.42;110053;1244;68167;-61
2023/10/03 04:41:53;;;;;;;7.30;4.70;;;;;;;4.52;100.00;98256.44;110047;1244;59727;-61
2023/10/03 04:44:23;;;;;;;6.80;4.60;;;;;;;4.58;100.00;98258.80;110082;1243;59681;-61
2023/10/03 04:46:54;;;;;;;7.00;4.40;;;;;;;4.62;100.00;98260.21;110054;1244;70731;-60
2023/10/03 04:49:23;;;;;;;9.30;5.60;;;;;;;4.63;100.00;98262.46;110087;1244;70092;-60
2023/10/03 04:51:53;;;;;;;7.20;4.30;;;;;;;4.61;100.00;98261.79;110085;1244;69340;-59
2023/10/03 04:54:23;;;;;;;7.70;5.60;;;;;;;4.63;100.00;98267.09;110050;1241;59717;-61
2023/10/03 04:56:53;;;;;;;8.60;5.30;;;;;;;4.68;100.00;98265.86;110078;1244;59702;-60
2023/10/03 04:59:22;;;;;;;10.40;6.00;;;;;;;4.76;100.00;98265.59;110099;1241;71339;-61
2023/10/03 05:01:51;;;;;;;11.60;6.20;;;;;;;4.83;100.00;98263.27;110081;1244;69617;-61
2023/10/03 05:04:22;;;;;;;7.40;5.30;;;;;;;4.92;100.00;98265.71;110108;1244;69286;-61
2023/10/03 05:06:51;;;;;;;7.20;5.00;;;;;;;5.03;100.00;98265.11;110118;1241;59675;-61
2023/10/03 05:09:22;;;;;;;6.80;4.90;;;;;;;5.19;100.00;98261.78;110129;1241;59752;-61
2023/10/03 05:11:51;;;;;;;10.20;6.00;;;;;;;5.41;100.00;98260.42;110140;1244;71126;-61
2023/10/03 05:14:21;;;;;;;9.00;5.60;;;;;;;5.60;100.00;98260.34;110122;1244;69902;-61
2023/10/03 05:16:52;;;;;;;10.50;6.30;;;;;;;5.81;100.00;98256.24;110115;1243;69181;-62
2023/10/03 05:19:23;;;;;;;8.70;5.70;;;;;;;6.01;100.00;98255.10;110100;1244;59688;-60
2023/10/03 05:21:54;;;;;;;8.00;5.80;;;;;;;6.19;100.00;98256.65;110099;1244;59634;-60
2023/10/03 05:24:23;;;;;;;9.10;5.80;;;;;;;6.38;100.00;98261.02;110089;1244;70638;-60
2023/10/03 05:26:52;;;;;;;9.70;6.00;;;;;;;6.64;100.00;98265.60;110100;1241;69223;-60
2023/10/03 05:29:22;;;;;;;9.00;6.30;;;;;;;6.90;100.00;98266.36;110087;1242;69854;-60
2023/10/03 05:31:51;;;;;;;;;;;;;;;7.25;100.00;98270.18;110091;1244;59744;-59
2023/10/03 05:34:22;;;;;;;12.00;7.30;;;;;;;7.56;100.00;98265.41;110097;1244;59647;-60
2023/10/03 05:36:53;;;;;;;14.60;9.00;;;;;;;7.83;100.00;98266.80;110117;1244;71877;-60
2023/10/03 05:39:22;;;;;;;;;;;;;;;8.10;100.00;98266.48;110091;1241;68611;-60
2023/10/03 05:41:56;;;;;;;11.90;7.60;;;;;;;8.21;100.00;98267.16;110097;1244;69136;-60
2023/10/03 05:44:25;;;;;;;10.50;6.10;;;;;;;8.52;100.00;98270.70;110089;1243;59781;-60
2023/10/03 05:46:55;;;;;;;12.30;7.20;;;;;;;8.79;98.80;98273.11;110071;1244;59639;-62
2023/10/03 05:49:25;;;;;;;10.40;7.10;;;;;;;9.10;99.92;98277.95;110093;1244;71294;-60
2023/10/03 05:51:58;;;;;;;14.10;7.70;;;;;;;9.36;95.54;98279.12;110072;1242;69695;-60
2023/10/03 05:54:30;;;;;;;12.00;6.80;;;;;;;9.61;94.07;98281.42;110079;1241;68728;-60
2023/10/03 05:56:59;;;;;;;12.10;7.70;;;;;;;9.75;91.82;98282.55;110076;1244;59741;-60
2023/10/03 05:59:30;;;;;;;;;;;;;;;10.01;91.84;98282.31;110118;1244;59730;-60
2023/10/03 06:02:01;;;;;;;15.00;7.60;;;;;;;10.29;93.52;98280.92;110076;1244;71433;-60
2023/10/03 06:04:35;;;;;;;9.80;6.70;;;;;;;10.68;97.98;98287.70;110142;1242;69833;-60
2023/10/03 06:07:06;;;;;;;10.70;7.30;;;;;;;11.08;96.68;98287.25;110053;1244;67734;-60
2023/10/03 06:09:37;;;;;;;8.60;6.00;;;;;;;11.35;96.22;98286.42;110068;1241;59705;-60
2023/10/03 06:12:06;;;;;;;9.70;6.80;;;;;;;11.60;93.14;98283.29;110098;1243;59666;-61
2023/10/03 06:14:39;;;;;;;9.20;7.00;;;;;;;11.53;85.51;98286.73;110105;1242;70688;-59
2023/10/03 06:17:09;;;;;;;13.10;7.30;;;;;;;11.74;85.31;98285.71;110134;1242;69223;-60
2023/10/03 06:19:39;;;;;;;;;;;;;;;11.82;85.19;98286.64;110150;1241;69237;-60
2023/10/03 06:22:10;;;;;;;15.40;7.60;;;;;;;11.81;85.04;98289.69;110116;1242;59670;-60
2023/10/03 06:24:41;;;;;;;11.50;7.00;;;;;;;11.99;85.34;98290.80;110155;1241;59761;-60
2023/10/03 06:27:11;;;;;;;8.80;5.90;;;;;;;12.24;83.86;98287.44;110112;1241;71348;-60
2023/10/03 06:29:41;;;;;;;12.30;6.10;;;;;;;12.59;82.42;98287.50;110125;1243;69408;-60
2023/10/03 06:32:10;;;;;;;8.20;5.60;;;;;;;12.87;81.67;98289.11;110100;1244;69882;-60
2023/10/03 06:34:39;;;;;;;7.60;5.10;;;;;;;13.12;80.82;98289.19;110193;1244;59776;-60
2023/10/03 06:37:08;;;;;;;7.40;5.10;;;;;;;13.26;78.47;98292.23;110184;1243;59702;-60
2023/10/03 06:39:39;;;;;;;10.00;5.70;;;;;;;13.51;77.01;98294.00;110158;1244;71393;-61
2023/10/03 06:42:09;;;;;;;7.10;5.30;;;;;;;13.66;76.52;98294.34;110085;1244;69814;-61
2023/10/03 06:44:40;;;;;;;6.70;4.80;;;;;;;13.99;75.26;98294.77;110094;1244;69188;-60
2023/10/03 06:47:10;;;;;;;7.20;4.80;;;;;;;14.15;74.05;98294.13;110142;1244;59666;-60
2023/10/03 06:49:40;;;;;;;8.00;5.30;;;;;;;14.29;73.76;98297.62;110080;1244;59639;-61
2023/10/03 06:52:10;;;;;;;7.90;5.00;;;;;;;14.43;72.70;98303.11;110130;1242;71977;-60
2023/10/03 06:54:40;;;;;;;;;;;;;;;14.80;71.17;98307.76;110147;1244;69157;-61
2023/10/03 06:57:10;;;;;;;;;;;;;;;15.00;70.64;98308.84;110088;1242;69619;-61
2023/10/03 06:59:40;;;;;;;8.10;5.30;;;;;;;15.32;71.17;98307.75;110107;1244;59737;-60
2023/10/03 07:02:09;;;;;;;8.20;5.00;;;;;;;15.54;70.56;98307.80;110070;1244;59683;-61
2023/10/03 07:04:40;;;;;;;6.60;4.90;;;;;;;15.62;69.65;98305.98;110069;1243;71307;-61
2023/10/03 07:07:10;;;;;;;8.60;4.80;;;;;;;15.58;69.16;98310.82;110076;1242;69221;-61
2023/10/03 07:09:40;;;;;;;7.80;4.80;;;;;;;15.60;68.92;98309.25;110046;1244;69276;-60
2023/10/03 07:12:09;;;;;;;7.90;5.00;;;;;;;15.97;68.63;98300.33;110048;1244;59699;-61
2023/10/03 07:14:38;;;;;;;7.00;4.20;;;;;;;16.31;66.28;98301.94;110101;1244;59633;-61
2023/10/03 07:17:08;;;;;;;8.00;5.10;;;;;;;16.58;65.09;98304.64;110080;1244;71477;-61
2023/10/03 07:19:37;;;;;;;8.00;5.50;;;;;;;16.66;64.18;98306.14;110071;1244;69242;-60
2023/10/03 07:22:07;;;;;;;8.50;4.70;;;;;;;16.82;63.51;98305.96;110077;1244;69920;-61
2023/10/03 07:24:39;;;;;;;7.10;4.60;;;;;;;17.14;63.61;98306.85;110110;1244;59676;-61
2023/10/03 07:27:09;;;;;;;6.70;4.50;;;;;;;17.31;62.23;98310.27;110025;1244;59690;-61
2023/10/03 07:29:42;;;;;;;;;;;;;;;17.51;62.86;98306.40;110121;1244;71956;-61
2023/10/03 07:32:13;;;;;;;6.80;4.20;;;;;;;18.37;60.91;98304.17;110053;1244;69809;-61
2023/10/03 07:34:45;;;;;;;5.90;3.80;;;;;;;18.88;60.79;98310.22;110073;1241;69383;-61
2023/10/03 07:37:15;;;;;;;7.90;4.70;;;;;;;19.28;56.45;98310.86;110077;1244;60080;-61
2023/10/03 07:39:45;;;;;;;7.70;4.70;;;;;;;19.25;56.08;98307.34;110066;1241;59713;-61
2023/10/03 07:42:15;;;;;;;6.20;4.60;;;;;;;19.57;55.69;98309.05;110106;1244;71779;-60
2023/10/03 07:44:45;;;;;;;7.00;4.30;;;;;;;20.02;54.30;98301.53;110084;1244;69909;-61
2023/10/03 07:47:15;;;;;;;7.10;4.50;;;;;;;20.34;54.06;98296.83;110117;1244;69340;-60
2023/10/03 07:49:46;;;;;;;7.00;4.20;;;;;;;20.60;52.27;98294.30;110095;1241;59729;-60
2023/10/03 07:52:19;;;;;;;6.70;3.70;;;;;;;20.88;53.30;98292.63;110143;1244;59749;-60
2023/10/03 07:54:54;;;;;;;4.50;3.80;;;;;;;21.17;50.60;98293.83;110117;1244;71993;-60
2023/10/03 07:57:25;;;;;;;7.90;4.30;;;;;;;21.62;50.09;98291.52;110118;1244;69400;-60
2023/10/03 07:59:54;;;;;;;7.30;3.80;;;;;;;21.37;48.43;98286.54;110093;1244;69886;-59
2023/10/03 08:02:32;;;;;;;10.10;5.30;;;;;;;21.23;48.59;98285.22;110058;1241;59675;-62
2023/10/03 08:05:01;;;;;;;6.30;4.30;;;;;;;21.57;48.48;98283.15;110050;1241;59745;-62
2023/10/03 08:07:32;;;;;;;6.10;3.60;;;;;;;21.29;48.02;98283.67;110075;1243;71395;-61
2023/10/03 08:10:03;;;;;;;6.30;4.40;;;;;;;21.27;47.82;98285.69;110055;1244;68488;-60
2023/10/03 08:12:37;;;;;;;5.80;3.80;;;;;;;21.70;47.52;98282.31;110116;1245;68955;-60
2023/10/03 08:15:17;;;;;;;7.60;4.40;;;;;;;21.54;47.28;98282.91;110072;1242;59767;-62
2023/10/03 08:17:53;;;;;;;9.00;4.70;;;;;;;21.54;47.19;98283.82;110078;1241;59706;-61
2023/10/03 08:20:29;;;;;;;8.90;4.60;;;;;;;22.13;46.12;98280.26;110075;1241;71442;-60
2023/10/03 08:23:03;;;;;;;8.60;3.80;;;;;;;22.11;45.62;98278.77;110115;1243;69161;-60
2023/10/03 08:25:34;;;;;;;5.30;3.40;;;;;;;22.54;44.86;98275.97;110113;1242;70260;-60
2023/10/03 08:28:09;;;;;;;7.00;4.50;;;;;;;22.51;44.43;98278.63;110070;1243;59732;-60
2023/10/03 08:30:41;;;;;;;7.70;4.90;;;;;;;22.63;44.22;98275.17;110108;1243;59904;-61
2023/10/03 08:33:16;;;;;;;5.60;4.00;;;;;;;22.43;44.05;98270.80;110044;1241;71417;-60
2023/10/03 08:35:46;;;;;;;6.10;4.10;;;;;;;22.92;43.79;98270.05;110110;1243;70195;-60
2023/10/03 08:38:19;;;;;;;7.70;4.30;;;;;;;23.69;42.31;98271.15;110105;1241;69261;-59
2023/10/03 08:40:51;;;;;;;7.10;4.70;;;;;;;23.76;40.85;98265.18;110116;1244;59683;-60
2023/10/03 08:43:25;;;;;;;6.80;4.00;;;;;;;23.40;41.57;98265.77;110129;1244;59702;-60
2023/10/03 08:46:01;;;;;;;7.40;3.70;;;;;;;23.83;42.09;98263.48;110090;1241;71979;-60
2023/10/03 08:48:31;;;;;;;6.80;4.40;;;;;;;24.45;41.20;98258.63;110069;1241;69309;-60
2023/10/03 08:51:04;;;;;;;6.90;3.90;;;;;;;24.19;40.75;98257.52;110030;1244;69997;-60
2023/10/03 08:53:34;;;;;;;5.10;3.20;;;;;;;24.46;40.43;98256.25;110122;1241;59721;-60
2023/10/03 08:56:06;;;;;;;6.00;3.80;;;;;;;25.01;39.18;98255.97;110107;1241;59757;-61
2023/10/03 08:58:35;;;;;;;6.20;3.90;;;;;;;24.49;39.21;98249.06;110102;1244;71704;-61
2023/10/03 09:01:07;;;;;;;6.10;4.20;;;;;;;25.42;37.95;98250.36;110064;1242;68589;-61
2023/10/03 09:03:49;;;;;;;6.70;3.80;;;;;;;25.22;37.00;98249.02;110097;1244;68323;-60
2023/10/03 09:06:23;;;;;;;6.20;3.70;;;;;;;24.91;37.97;98248.54;109865;1244;59726;-60
2023/10/03 09:09:09;;;;;;;6.80;3.80;;;;;;;24.16;38.68;98248.80;109549;1244;711244;-61
2023/10/03 09:11:43;;;;;;;6.50;3.90;;;;;;;24.32;38.41;98245.24;110068;1241;71388;-60
2023/10/03 09:14:19;;;;;;;5.90;3.90;;;;;;;24.44;39.38;98242.39;110092;1244;69476;-61
2023/10/03 09:16:53;;;;;;;5.00;3.60;;;;;;;24.19;37.69;98243.09;110068;1243;69251;-60
2023/10/03 09:19:50;;;;;;;6.00;3.80;;;;;;;24.41;37.37;98243.89;110109;1244;59650;-60
2023/10/03 09:22:32;;;;;;;6.80;3.60;;;;;;;24.21;37.20;98239.98;110109;1244;59617;-60
2023/10/03 09:25:01;;;;;;;5.40;2.90;;;;;;;25.08;36.49;98240.80;110063;1244;71998;-61
2023/10/03 09:27:31;;;;;;;5.60;3.70;;;;;;;26.00;35.03;98236.21;110115;1244;69137;-60
2023/10/03 09:30:08;;;;;;;5.20;3.40;;;;;;;26.17;33.78;98238.11;110078;1243;69991;-60
2023/10/03 09:32:39;;;;;;;4.70;2.80;;;;;;;25.73;34.53;98240.51;110053;1241;59698;-60
2023/10/03 09:35:12;;;;;;;5.40;3.20;;;;;;;26.03;34.41;98236.45;110122;1244;59675;-60
2023/10/03 09:37:48;;;;;;;5.50;3.20;;;;;;;26.89;33.49;98241.19;110107;1244;72413;-60
2023/10/03 09:40:18;;;;;;;4.00;2.60;;;;;;;26.40;33.11;98236.36;110110;1244;69865;-60
2023/10/03 09:42:50;;;;;;;4.30;2.60;;;;;;;27.00;33.02;98236.25;110108;1244;69419;-60
2023/10/03 09:45:24;;;;;;;5.70;3.00;;;;;;;27.41;31.73;98229.84;110105;1244;59769;-60
2023/10/03 09:48:05;;;;;;;3.60;2.80;;;;;;;26.45;32.57;98227.88;110078;1244;59627;-60
2023/10/03 09:50:36;;;;;;;5.60;3.30;;;;;;;26.78;33.08;98227.09;110067;1243;71961;-61
2023/10/03 09:53:07;;;;;;;5.00;2.80;;;;;;;27.99;31.76;98230.96;110089;1244;69554;-61
2023/10/03 09:55:41;;;;;;;6.40;3.10;;;;;;;28.30;31.02;98222.73;110097;1244;69734;-61
2023/10/03 09:58:11;;;;;;;6.00;3.50;;;;;;;27.88;31.14;98221.00;110104;1244;59758;-60
2023/10/03 10:00:51;;;;;;;4.70;2.90;;;;;;;27.06;31.07;98222.11;110139;1244;59700;-62
2023/10/03 10:03:37;;;;;;;6.00;3.30;;;;;;;27.31;31.12;98218.98;110130;1244;71372;-62
2023/10/03 10:06:47;;;;;;;5.70;3.20;;;;;;;27.87;31.35;98215.64;109956;1244;68407;-60
2023/10/03 10:09:29;;;;;;;5.70;3.50;;;;;;;28.05;30.13;98209.44;110130;1244;69144;-60
2023/10/03 10:12:25;;;;;;;5.40;3.30;;;;;;;28.44;30.38;98205.73;110103;1243;59706;-62
2023/10/03 10:17:45;;;;;;;5.30;3.00;;;;;;;29.15;30.30;98199.14;109972;1242;71287;-60
2023/10/03 10:20:37;;;;;;;6.10;3.50;;;;;;;29.72;29.24;98201.70;109796;1242;69235;-60
2023/10/03 10:26:01;;;;;;;5.70;3.30;;;;;;;27.83;29.52;98193.05;110081;1244;59711;-62
2023/10/03 10:28:34;;;;;;;5.50;3.30;;;;;;;27.79;30.07;98191.61;110130;1244;59755;-61
2023/10/03 10:31:24;;;;;;;5.10;3.40;;;;;;;27.50;30.39;98188.78;110074;1241;71974;-60
2023/10/03 10:34:22;;;;;;;5.70;3.90;;;;;;;27.89;29.97;98181.52;110147;1244;69114;-61
2023/10/03 10:36:55;;;;;;;5.40;3.20;;;;;;;28.35;29.83;98175.04;110084;1244;70248;-60
2023/10/03 10:40:04;;;;;;;5.20;3.20;;;;;;;28.34;29.34;98164.61;110117;1241;60135;-60
2023/10/03 10:42:59;;;;;;;6.30;3.30;;;;;;;28.11;29.50;98165.70;110092;1243;59692;-60
2023/10/03 10:45:37;;;;;;;5.20;2.70;;;;;;;29.18;29.49;98155.98;110060;1244;72014;-60
2023/10/03 10:48:11;;;;;;;5.70;3.60;;;;;;;29.89;28.71;98149.48;110109;1244;69836;-60
2023/10/03 10:51:12;;;;;;;6.20;2.90;;;;;;;30.59;28.08;98151.34;110044;1241;69391;-60
2023/10/03 10:53:44;;;;;;;5.70;3.60;;;;;;;30.42;27.05;98145.92;109972;1242;59748;-60
2023/10/03 10:56:14;;;;;;;5.80;3.40;;;;;;;30.07;27.69;98141.58;110047;1244;59647;-60
2023/10/03 10:58:51;;;;;;;5.40;3.70;;;;;;;29.96;28.43;98140.36;110052;1250;71350;-60
2023/10/03 11:01:21;;;;;;;4.50;3.20;;;;;;;29.74;27.81;98137.27;110094;1244;69883;-60
2023/10/03 11:03:50;;;;;;;6.90;3.70;;;;;;;29.84;27.77;98134.57;110117;1244;69097;-60
2023/10/03 11:06:23;;;;;;;6.40;3.50;;;;;;;29.95;27.45;98131.80;110063;1242;59729;-60
2023/10/03 11:08:52;;;;;;;5.40;3.20;;;;;;;29.34;28.05;98128.08;110134;1244;59683;-60
2023/10/03 11:11:35;;;;;;;5.30;3.40;;;;;;;29.91;27.60;98122.87;110115;1243;71971;-61
2023/10/03 11:14:04;;;;;;;4.70;3.60;;;;;;;30.04;26.92;98117.67;110080;1244;69815;-61
2023/10/03 11:16:34;;;;;;;4.30;3.00;;;;;;;30.25;25.94;98117.18;110051;1244;69637;-60
2023/10/03 11:19:04;;;;;;;4.20;3.00;;;;;;;29.27;27.75;98114.73;110112;1244;60130;-60
2023/10/03 11:21:34;;;;;;;4.70;3.00;;;;;;;30.73;27.12;98113.34;110067;1241;59713;-60
2023/10/03 11:24:08;;;;;;;4.20;3.10;;;;;;;31.38;26.00;98109.94;110047;1241;71780;-60
2023/10/03 11:26:44;;;;;;;5.60;3.10;;;;;;;31.56;25.37;98105.09;110112;1241;68574;-61
2023/10/03 11:29:17;;;;;;;5.20;3.00;;;;;;;31.42;25.08;98097.19;110096;1241;70212;-61
2023/10/03 11:31:47;;;;;;;4.50;3.40;;;;;;;31.61;25.69;98098.73;109838;1243;60115;-60
2023/10/03 11:34:29;;;;;;;5.40;3.80;;;;;;;31.91;24.95;98092.67;110092;1244;59684;-61
2023/10/03 11:36:59;;;;;;;5.60;3.10;;;;;;;30.97;25.20;98087.02;110138;1243;71503;-61
2023/10/03 11:39:28;;;;;;;5.30;2.90;;;;;;;29.32;26.70;98087.67;110106;1244;69198;-61
2023/10/03 11:42:01;;;;;;;4.60;2.90;;;;;;;29.48;26.92;98081.14;110085;1244;69257;-61
2023/10/03 11:44:31;;;;;;;5.80;3.60;;;;;;;30.15;26.60;98083.42;110068;1244;59774;-61
2023/10/03 11:47:00;;;;;;;5.70;3.40;;;;;;;29.70;26.34;98076.16;110107;1241;59738;-61
2023/10/03 11:49:30;;;;;;;5.70;3.60;;;;;;;28.96;27.58;98072.59;110058;1245;71981;-60
2023/10/03 11:51:59;;;;;;;5.10;3.30;;;;;;;29.61;26.96;98070.55;110108;1244;69865;-60
2023/10/03 11:54:29;;;;;;;4.00;2.70;;;;;;;29.77;26.76;98071.70;110082;1243;69900;-60
2023/10/03 11:56:58;;;;;;;3.90;2.70;;;;;;;30.30;26.33;98069.40;110100;1242;59693;-60
2023/10/03 11:59:29;;;;;;;5.00;2.90;;;;;;;30.19;26.02;98066.30;110131;1244;59670;-60